Terminal Aerodrome Forecast
Issued by NWS Caribou, ME

Home | Current Version | Previous Version | Text Only | Print | Product List | Glossary On
Versions: 1 2 3 4 5 6 7 8 9 10 11 12 13 14
000
FTUS41 KCAR 212300 RRA
TAFCAR
TAF
KCAR 212349Z 2200/2224 16010G20KT P6SM SCT020 BKN045
     FM220200 17009KT P6SM OVC025
     FM220400 17008KT P6SM OVC015
     FM220600 16005KT 5SM -DZ OVC007
     FM220800 18004KT 3SM BR OVC003
     FM221100 24008KT 4SM -SHRA BR OVC007
     FM221400 27012G22KT P6SM BKN015
     FM221800 31012G22KT P6SM SCT015 BKN050=

USA.gov is the U.S. government's official web portal to all federal, state and local government web resources and services.